Time;durP1;ratioP1;P1;durP2;ratioP2;P2;SDS_P1;SDS_P2;PMS_P1;PMS_P2;Temp;Humidity;BMP_temperature;BMP_pressure;BME280_temperature;BME280_humidity;BME280_pressure;Samples;Min_cycle;Max_cycle;Signal;HPM_P1;HPM_P2
2022/05/25 00:01:56;;;;;;;4.30;3.75;;;11.50;99.90;;;;;;4666558;30;20082;-87
2022/05/25 00:04:24;;;;;;;3.85;3.45;;;11.50;99.90;;;;;;4682144;30;20087;-87
2022/05/25 00:06:52;;;;;;;13.52;5.63;;;11.50;99.90;;;;;;4666946;30;20062;-86
2022/05/25 00:09:20;;;;;;;5.82;4.38;;;11.50;99.90;;;;;;4665955;30;20042;-87
2022/05/25 00:11:49;;;;;;;5.03;4.38;;;11.50;99.90;;;;;;4693007;30;20065;-87
2022/05/25 00:14:17;;;;;;;8.38;5.30;;;11.50;99.90;;;;;;4666407;30;20080;-87
2022/05/25 00:16:45;;;;;;;5.03;4.55;;;11.50;99.90;;;;;;4652569;30;20049;-87
2022/05/25 00:21:59;;;;;;;3.95;3.47;;;11.50;99.90;;;;;;4680439;30;20066;-87
2022/05/25 00:24:27;;;;;;;5.05;4.55;;;11.50;99.90;;;;;;4666591;30;20057;-87
2022/05/25 00:26:55;;;;;;;4.07;3.65;;;11.40;99.90;;;;;;4682028;30;20061;-87
2022/05/25 00:29:23;;;;;;;4.43;4.03;;;11.40;99.90;;;;;;4680385;30;20057;-86
2022/05/25 00:31:51;;;;;;;4.30;3.97;;;11.50;99.90;;;;;;4666811;30;20062;-87
2022/05/25 00:34:19;;;;;;;6.45;5.38;;;11.50;99.90;;;;;;4652241;30;20058;-87
2022/05/25 00:36:47;;;;;;;7.80;4.93;;;11.50;99.90;;;;;;4666242;30;20412;-87
2022/05/25 00:39:15;;;;;;;4.68;4.28;;;11.40;99.90;;;;;;4673994;30;20281;-87
2022/05/25 00:41:43;;;;;;;4.35;3.88;;;11.40;99.90;;;;;;4682932;30;20413;-87
2022/05/25 00:44:15;;;;;;;5.88;3.45;;;11.30;99.90;;;;;;4668722;30;20057;-87
2022/05/25 00:46:43;;;;;;;4.13;3.45;;;11.30;99.90;;;;;;4684055;30;20061;-88
2022/05/25 00:49:27;;;;;;;5.93;4.60;;;11.40;99.90;;;;;;4669212;30;20049;-87
2022/05/25 00:52:07;;;;;;;5.90;4.57;;;11.40;99.90;;;;;;4683728;30;20062;-87
2022/05/25 00:54:42;;;;;;;5.53;3.63;;;11.40;99.90;;;;;;4665816;30;20058;-87
2022/05/25 03:58:48;;;;;;;;;;;;;;;;;;;;;
2022/05/25 04:02:53;;;;;;;6.15;5.55;;;11.20;99.90;;;;;;4539819;31;20898;-84
2022/05/25 04:10:16;;;;;;;4.53;3.67;;;11.20;99.90;;;;;;4632744;30;20070;-85
2022/05/25 04:13:03;;;;;;;4.05;3.72;;;11.30;99.90;;;;;;4681761;30;20056;-85
2022/05/25 04:15:37;;;;;;;5.50;3.67;;;11.10;99.90;;;;;;4684522;30;20073;-85
2022/05/25 04:18:17;;;;;;;4.38;3.97;;;11.20;99.90;;;;;;4696335;30;20053;-85
2022/05/25 04:20:56;;;;;;;4.60;3.95;;;11.10;99.90;;;;;;4681303;30;20052;-86
2022/05/25 04:24:05;;;;;;;6.38;3.50;;;11.20;99.90;;;;;;4703683;30;20064;-84
2022/05/25 04:27:10;;;;;;;6.90;3.72;;;11.20;99.90;;;;;;4695670;30;20423;-85
2022/05/25 04:33:15;;;;;;;5.03;3.70;;;11.20;99.90;;;;;;4681184;30;20060;-84
2022/05/25 04:36:13;;;;;;;3.70;3.25;;;11.30;99.90;;;;;;4660460;30;20423;-84
2022/05/25 04:42:37;;;;;;;4.40;4.00;;;11.30;99.90;;;;;;4653116;30;20065;-83
2022/05/25 04:46:01;;;;;;;4.65;4.20;;;11.40;99.90;;;;;;4656810;30;20058;-85
2022/05/25 04:53:30;;;;;;;5.18;4.35;;;11.30;99.90;;;;;;4609767;30;20086;-84
2022/05/25 04:59:09;;;;;;;4.93;4.18;;;11.50;99.90;;;;;;4608182;31;20142;-85
2022/05/25 05:04:39;;;;;;;5.32;4.82;;;11.50;99.90;;;;;;4664541;30;20101;-84
2022/05/25 05:07:24;;;;;;;8.73;6.78;;;11.50;99.90;;;;;;4652577;30;20062;-84
2022/05/25 05:10:06;;;;;;;7.78;4.50;;;11.50;99.90;;;;;;4666878;30;20057;-83
2022/05/25 05:13:33;;;;;;;5.82;5.00;;;11.50;99.90;;;;;;4662634;30;20074;-85
2022/05/25 05:20:25;;;;;;;5.50;4.93;;;11.50;99.90;;;;;;4693802;30;20075;-83
2022/05/25 05:23:13;;;;;;;7.28;6.05;;;11.50;99.90;;;;;;4664798;30;20053;-84
2022/05/25 05:25:41;;;;;;;5.75;3.83;;;11.50;99.90;;;;;;4673953;30;20054;-84
2022/05/25 05:28:53;;;;;;;7.13;5.13;;;11.50;99.90;;;;;;4650846;30;20054;-84
2022/05/25 05:32:41;;;;;;;;;;;;;;;;;;;;;
2022/05/25 05:35:24;;;;;;;9.18;5.00;;;11.50;99.90;;;;;;4637072;30;20662;-83
2022/05/25 05:37:58;;;;;;;5.18;4.65;;;11.50;99.90;;;;;;4683322;30;20050;-83
2022/05/25 05:40:44;;;;;;;5.57;3.80;;;11.40;99.90;;;;;;4643517;30;20415;-83
2022/05/25 05:43:15;;;;;;;4.88;4.10;;;11.50;99.90;;;;;;4667126;30;20045;-83
2022/05/25 05:46:07;;;;;;;7.10;5.55;;;11.40;99.90;;;;;;4660245;30;20045;-83
2022/05/25 05:48:47;;;;;;;6.78;5.90;;;11.40;99.90;;;;;;4665590;30;20045;-83
2022/05/25 05:51:23;;;;;;;6.47;5.07;;;11.40;99.90;;;;;;4668121;30;20069;-84
2022/05/25 05:53:52;;;;;;;5.45;4.95;;;11.50;99.90;;;;;;4675437;30;20502;-83
2022/05/25 05:56:20;;;;;;;7.00;4.95;;;11.40;99.90;;;;;;4666033;30;20061;-83
2022/05/25 05:58:52;;;;;;;7.60;5.60;;;11.40;99.90;;;;;;4680672;30;20494;-82
2022/05/25 06:01:36;;;;;;;5.38;4.63;;;11.40;99.90;;;;;;4645388;30;20058;-83
2022/05/25 06:04:05;;;;;;;6.80;5.07;;;11.40;99.90;;;;;;4682215;30;20088;-82
2022/05/25 06:06:33;;;;;;;5.20;4.30;;;11.40;99.90;;;;;;4683634;30;20061;-82
2022/05/25 06:09:01;;;;;;;7.68;4.28;;;11.40;99.90;;;;;;4696138;30;20112;-82
2022/05/25 06:11:29;;;;;;;12.00;5.53;;;11.40;99.90;;;;;;4668865;30;20483;-83
2022/05/25 06:13:57;;;;;;;6.18;5.57;;;11.40;99.90;;;;;;4673631;30;20058;-82
2022/05/25 06:19:26;;;;;;;5.57;5.00;;;11.40;99.90;;;;;;4670923;30;20057;-83
2022/05/25 06:22:09;;;;;;;6.38;4.88;;;11.40;99.90;;;;;;4690817;30;20057;-82
2022/05/25 06:24:40;;;;;;;7.30;5.30;;;11.40;99.90;;;;;;4667791;30;20404;-82
2022/05/25 06:27:11;;;;;;;7.93;5.20;;;11.40;99.90;;;;;;4680356;30;20061;-83
2022/05/25 06:29:47;;;;;;;6.00;5.43;;;11.50;99.90;;;;;;4690355;30;20058;-82
2022/05/25 06:32:23;;;;;;;6.05;5.45;;;11.50;99.90;;;;;;4654161;30;20066;-83
2022/05/25 06:34:51;;;;;;;12.10;6.40;;;11.50;99.90;;;;;;4663644;30;20072;-83
2022/05/25 06:37:24;;;;;;;6.32;5.70;;;11.50;99.90;;;;;;4668351;30;20053;-82
2022/05/25 06:39:52;;;;;;;8.90;7.18;;;11.50;99.90;;;;;;4665183;30;20411;-82
2022/05/25 06:42:21;;;;;;;8.50;7.60;;;11.60;99.90;;;;;;4667003;30;20065;-82
2022/05/25 06:44:57;;;;;;;12.60;7.45;;;11.60;99.90;;;;;;4685151;30;20068;-82
2022/05/25 06:47:27;;;;;;;7.00;5.28;;;11.60;99.90;;;;;;4679633;30;20054;-82
2022/05/25 06:49:55;;;;;;;8.10;7.03;;;11.60;99.90;;;;;;4651373;30;20125;-82
2022/05/25 06:52:23;;;;;;;7.82;6.63;;;11.60;99.90;;;;;;4661809;30;20508;-82
2022/05/25 06:54:56;;;;;;;10.38;5.50;;;11.60;99.90;;;;;;4678797;30;20059;-83
2022/05/25 06:57:25;;;;;;;7.22;5.97;;;11.60;99.90;;;;;;4650553;30;20054;-82
2022/05/25 06:59:56;;;;;;;6.85;5.93;;;11.60;99.90;;;;;;4678097;30;20051;-83
2022/05/25 07:02:26;;;;;;;6.45;5.57;;;11.60;99.90;;;;;;4665471;30;20053;-83
2022/05/25 07:04:58;;;;;;;6.95;6.25;;;11.60;99.90;;;;;;4665393;30;20431;-82
2022/05/25 07:07:25;;;;;;;10.20;6.20;;;11.60;99.90;;;;;;4664936;30;20510;-82
2022/05/25 07:09:53;;;;;;;6.28;5.68;;;11.70;99.90;;;;;;4650645;30;20062;-82
2022/05/25 07:12:21;;;;;;;5.50;5.00;;;11.70;99.90;;;;;;4650074;30;20512;-84
2022/05/25 07:14:49;;;;;;;8.07;6.78;;;11.70;99.90;;;;;;4664668;30;20081;-82
2022/05/25 07:17:17;;;;;;;5.55;5.05;;;11.80;99.90;;;;;;4646893;30;20058;-82
2022/05/25 07:19:59;;;;;;;6.00;5.40;;;11.80;99.90;;;;;;4655046;30;20061;-83
2022/05/25 07:22:28;;;;;;;6.68;6.07;;;12.00;99.90;;;;;;4663959;30;20109;-83
2022/05/25 07:24:56;;;;;;;4.32;3.92;;;12.00;99.90;;;;;;4664416;30;20046;-84
2022/05/25 07:27:35;;;;;;;4.28;3.88;;;12.00;99.90;;;;;;4676665;30;20061;-83
2022/05/25 07:30:51;;;;;;;5.47;3.47;;;12.00;99.90;;;;;;4647060;30;20053;-83
2022/05/25 07:33:20;;;;;;;4.68;3.10;;;11.90;99.90;;;;;;4666801;30;20049;-81
2022/05/25 07:35:48;;;;;;;4.03;3.55;;;12.10;99.90;;;;;;4666497;30;20050;-81
2022/05/25 07:38:16;;;;;;;4.15;3.60;;;12.10;99.90;;;;;;4675352;30;20730;-81
2022/05/25 07:40:45;;;;;;;4.47;4.18;;;12.00;99.90;;;;;;4671039;30;20054;-81
2022/05/25 07:43:16;;;;;;;4.53;4.13;;;12.20;99.90;;;;;;4670435;30;20065;-81
2022/05/25 07:45:45;;;;;;;5.80;3.45;;;12.30;99.90;;;;;;4669548;30;20046;-81
2022/05/25 07:48:13;;;;;;;3.85;3.55;;;12.30;99.90;;;;;;4670311;30;20046;-81
2022/05/25 07:50:42;;;;;;;2.33;2.22;;;12.40;99.90;;;;;;4684273;30;20064;-81
2022/05/25 07:56:01;;;;;;;21.65;5.15;;;12.40;99.90;;;;;;4680604;30;20085;-81
2022/05/25 07:58:31;;;;;;;3.53;3.22;;;12.40;99.90;;;;;;4665043;30;20061;-81
2022/05/25 08:01:05;;;;;;;2.80;2.60;;;12.50;99.90;;;;;;4665435;30;20068;-81
2022/05/25 08:06:21;;;;;;;2.10;2.00;;;12.40;99.90;;;;;;4677947;30;20046;-80
2022/05/25 08:08:51;;;;;;;2.70;2.50;;;12.30;99.90;;;;;;4671168;30;20057;-82
2022/05/25 08:11:21;;;;;;;9.63;1.70;;;12.30;99.90;;;;;;4687936;30;20050;-81
2022/05/25 08:13:53;;;;;;;2.88;1.80;;;12.40;99.90;;;;;;4689490;30;20314;-84
2022/05/25 08:16:21;;;;;;;2.92;1.25;;;12.20;99.90;;;;;;4680344;30;20061;-82
2022/05/25 08:18:49;;;;;;;1.92;1.83;;;12.20;99.90;;;;;;4689420;30;20088;-80
2022/05/25 08:21:17;;;;;;;2.60;1.30;;;12.40;99.90;;;;;;4681299;30;20062;-81
2022/05/25 08:24:05;;;;;;;1.40;1.30;;;12.30;99.90;;;;;;4690343;30;20702;-82
2022/05/25 08:26:33;;;;;;;2.92;1.33;;;12.30;99.90;;;;;;4671247;30;20057;-83
2022/05/25 08:29:01;;;;;;;2.90;1.73;;;12.30;99.90;;;;;;4682314;30;20054;-85
2022/05/25 08:36:32;;;;;;;1.10;1.10;;;12.40;99.90;;;;;;4680627;30;20050;-85
2022/05/25 08:44:14;;;;;;;5.55;1.80;;;12.70;99.90;;;;;;4665550;30;20082;-86
2022/05/25 08:46:42;;;;;;;1.58;1.48;;;12.90;99.90;;;;;;4681163;30;20054;-85
2022/05/25 08:49:14;;;;;;;3.80;2.00;;;13.10;99.90;;;;;;4680146;30;20521;-87
2022/05/25 08:51:51;;;;;;;3.40;2.40;;;13.10;99.90;;;;;;4652564;30;20411;-85
2022/05/25 08:54:20;;;;;;;1.90;1.80;;;13.20;99.90;;;;;;4681735;30;20058;-86
2022/05/25 08:56:55;;;;;;;4.13;2.05;;;13.00;99.90;;;;;;4680145;30;20046;-86
2022/05/25 08:59:34;;;;;;;3.55;2.17;;;13.10;99.90;;;;;;4666558;30;20072;-86
2022/05/25 09:02:53;;;;;;;2.38;2.05;;;13.10;99.90;;;;;;4680551;30;20061;-86
2022/05/25 09:05:59;;;;;;;3.40;1.85;;;13.10;99.90;;;;;;4671283;30;20061;-88
2022/05/25 09:08:40;;;;;;;2.70;1.67;;;13.00;99.90;;;;;;4680759;30;20053;-87
2022/05/25 09:11:14;;;;;;;1.98;1.52;;;12.90;99.90;;;;;;4681148;30;20062;-86
2022/05/25 09:14:05;;;;;;;1.52;1.20;;;12.80;99.90;;;;;;4636529;30;20561;-87
2022/05/25 09:16:36;;;;;;;1.77;1.67;;;12.80;99.90;;;;;;4665104;30;20061;-87
2022/05/25 09:19:26;;;;;;;2.67;1.50;;;12.70;99.90;;;;;;4655590;30;20058;-87
2022/05/25 09:22:01;;;;;;;1.60;1.50;;;12.70;99.90;;;;;;4688279;30;20410;-86
2022/05/25 09:24:35;;;;;;;2.08;1.88;;;12.80;99.90;;;;;;4682025;30;20093;-87
2022/05/25 09:27:06;;;;;;;2.75;2.00;;;12.80;99.90;;;;;;4682120;30;20054;-86
2022/05/25 09:29:34;;;;;;;3.30;2.25;;;12.90;99.90;;;;;;4684301;30;20046;-87
2022/05/25 09:32:11;;;;;;;1.60;1.50;;;12.80;99.90;;;;;;4694298;30;20061;-79
2022/05/25 09:35:21;;;;;;;3.63;1.90;;;12.80;99.90;;;;;;4680848;30;20058;-78
2022/05/25 09:38:26;;;;;;;1.92;1.83;;;12.90;99.90;;;;;;4625473;30;20062;-86
2022/05/25 10:04:52;;;;;;;2.38;1.02;;;13.10;99.90;;;;;;4684239;30;20080;-89
2022/05/25 11:14:32;;;;;;;;;;;;;;;;;;;;;
2022/05/25 11:19:13;;;;;;;;;;;;;;;;;;;;;
2022/05/25 11:24:20;;;;;;;;;;;;;;;;;;;;;
2022/05/25 11:28:25;;;;;;;1.58;1.48;;;14.70;99.90;;;;;;4600019;31;20067;-82
2022/05/25 11:31:53;;;;;;;1.70;1.38;;;14.90;99.90;;;;;;4600208;31;20060;-85
2022/05/25 11:35:15;;;;;;;;;;;;;;;;;;;;;
2022/05/25 11:44:34;;;;;;;1.23;1.02;;;14.90;99.90;;;;;;4580785;31;20056;-86
2022/05/25 11:52:47;;;;;;;1.88;1.77;;;14.80;99.90;;;;;;4530245;31;20065;-86
2022/05/25 11:55:41;;;;;;;1.70;1.60;;;15.20;99.90;;;;;;4525058;31;20054;-85
2022/05/25 11:58:53;;;;;;;1.08;1.00;;;15.50;99.90;;;;;;4533309;31;20049;-83
2022/05/25 12:31:18;;;;;;;1.48;1.38;;;15.80;99.90;;;;;;4649330;24;20049;-84
2022/05/25 12:35:18;;;;;;;1.10;0.98;;;15.80;99.90;;;;;;4704427;30;20072;-85
2022/05/25 13:02:29;;;;;;;;;;;;;;;;;;;;;
2022/05/25 14:00:28;;;;;;;0.70;0.70;;;16.20;99.90;;;;;;4635011;30;20054;-86
2022/05/25 14:34:19;;;;;;;3.15;1.63;;;15.10;99.90;;;;;;4716609;30;20057;-82
2022/05/25 14:36:53;;;;;;;2.05;0.85;;;15.10;99.90;;;;;;4716900;30;20057;-83
2022/05/25 14:39:28;;;;;;;0.60;0.60;;;15.10;99.90;;;;;;4718247;30;20057;-85
2022/05/25 14:42:14;;;;;;;2.50;1.15;;;15.10;99.90;;;;;;4716380;30;20074;-85
2022/05/25 14:44:49;;;;;;;0.85;0.85;;;15.10;99.90;;;;;;4684971;30;20395;-85
2022/05/25 14:47:49;;;;;;;2.83;0.98;;;15.10;99.90;;;;;;4685729;30;20065;-85
2022/05/25 14:52:37;;;;;;;8.77;3.75;;;15.10;99.90;;;;;;4707132;30;20539;-85
2022/05/25 15:48:49;;;;;;;3.22;2.97;;;16.10;99.90;;;;;;5031127;25;20059;-87
2022/05/25 16:24:22;;;;;;;1.25;1.15;;;16.60;99.90;;;;;;4698209;30;20499;-84
2022/05/25 16:27:13;;;;;;;0.95;0.85;;;17.00;99.90;;;;;;4654297;30;20041;-83
2022/05/25 16:30:01;;;;;;;0.75;0.43;;;17.40;99.90;;;;;;4668544;30;20050;-83
2022/05/25 16:32:30;;;;;;;0.70;0.70;;;17.50;99.90;;;;;;4654248;30;20053;-83
2022/05/25 16:35:07;;;;;;;1.23;0.90;;;17.60;99.90;;;;;;4667739;30;20422;-84
2022/05/25 16:37:46;;;;;;;0.95;0.80;;;17.70;99.90;;;;;;4668907;30;20411;-83
2022/05/25 16:40:45;;;;;;;0.50;0.50;;;17.70;99.90;;;;;;4673871;30;20056;-84
2022/05/25 16:43:19;;;;;;;0.50;0.50;;;17.60;99.90;;;;;;4697588;30;20128;-81
2022/05/25 16:45:52;;;;;;;0.80;0.80;;;17.70;99.90;;;;;;4698332;30;20046;-81
2022/05/25 16:48:20;;;;;;;0.60;0.60;;;17.40;99.90;;;;;;4698027;30;20057;-81
2022/05/25 16:50:50;;;;;;;1.52;0.70;;;17.00;99.90;;;;;;4698425;30;20061;-80
2022/05/25 16:53:17;;;;;;;1.05;0.60;;;16.80;99.90;;;;;;4698068;30;20057;-81
2022/05/25 16:55:51;;;;;;;0.80;0.80;;;16.70;99.90;;;;;;4697172;30;20502;-81
2022/05/25 16:58:19;;;;;;;0.85;0.65;;;16.80;99.90;;;;;;4701198;30;20060;-80
2022/05/25 17:00:47;;;;;;;0.45;0.45;;;16.90;99.90;;;;;;4698273;30;20649;-81
2022/05/25 17:11:22;;;;;;;0.75;0.75;;;17.30;99.90;;;;;;4784969;24;20061;-84
2022/05/25 17:15:34;;;;;;;4.28;1.05;;;17.30;99.90;;;;;;4698336;24;20069;-82
2022/05/25 17:18:15;;;;;;;0.77;0.73;;;17.30;99.90;;;;;;4695783;30;20533;-84
2022/05/25 17:20:57;;;;;;;0.80;0.80;;;17.40;99.90;;;;;;4685889;30;20060;-86
2022/05/25 17:23:27;;;;;;;0.73;0.73;;;17.50;99.90;;;;;;4680828;30;20414;-86
2022/05/25 17:26:36;;;;;;;0.50;0.50;;;17.40;99.90;;;;;;4684886;30;20060;-85
2022/05/25 17:29:17;;;;;;;0.60;0.60;;;17.30;99.90;;;;;;4664355;30;20038;-86
2022/05/25 17:32:21;;;;;;;1.95;0.68;;;17.20;99.90;;;;;;4690083;30;20542;-85
2022/05/25 17:35:07;;;;;;;0.75;0.75;;;17.10;99.90;;;;;;4687264;30;20789;-86
2022/05/25 17:43:55;;;;;;;0.80;0.60;;;16.90;99.90;;;;;;4694489;30;20062;-86
2022/05/25 17:46:57;;;;;;;0.80;0.80;;;16.80;99.90;;;;;;4685872;30;20042;-86
2022/05/25 17:49:35;;;;;;;5.53;1.23;;;16.80;99.90;;;;;;4693876;30;20058;-84
2022/05/25 17:52:05;;;;;;;0.50;0.50;;;16.70;99.90;;;;;;4684773;30;20053;-84
2022/05/25 17:54:40;;;;;;;0.88;0.75;;;16.60;99.90;;;;;;4684340;30;20045;-85
2022/05/25 18:16:19;;;;;;;0.50;0.50;;;16.10;99.90;;;;;;5333131;24;20033;-87
2022/05/25 18:18:47;;;;;;;1.90;1.80;;;16.20;99.90;;;;;;4717412;30;20068;-85
2022/05/25 18:25:10;;;;;;;1.50;0.73;;;16.10;99.90;;;;;;4714141;30;20052;-88
2022/05/25 18:31:46;;;;;;;1.58;1.05;;;15.50;99.90;;;;;;4793770;24;20057;-86
2022/05/25 18:34:32;;;;;;;0.80;0.80;;;15.10;99.90;;;;;;4716366;30;20074;-87
2022/05/25 18:38:30;;;;;;;;;;;;;;;;;;;;;
2022/05/25 18:41:17;;;;;;;0.63;0.63;;;14.30;99.90;;;;;;4629290;30;20059;-84
2022/05/25 18:43:47;;;;;;;1.45;1.05;;;14.00;99.90;;;;;;4615784;31;20059;-85
2022/05/25 18:46:27;;;;;;;1.63;0.93;;;13.80;99.90;;;;;;4614583;30;20064;-85
2022/05/25 18:49:00;;;;;;;1.08;0.85;;;13.60;99.90;;;;;;4627494;30;20420;-84
2022/05/25 18:51:39;;;;;;;0.95;0.82;;;13.50;99.90;;;;;;4632649;30;20898;-85
2022/05/25 19:52:14;;;;;;;;;;;;;;;;;;;;;
2022/05/25 20:09:11;;;;;;;1.75;1.65;;;11.40;99.90;;;;;;4636747;30;20053;-84
2022/05/25 20:11:42;;;;;;;1.27;1.17;;;11.40;99.90;;;;;;4679420;30;20510;-83
2022/05/25 20:14:11;;;;;;;1.92;1.83;;;11.30;99.90;;;;;;4678224;30;20101;-83
2022/05/25 20:16:41;;;;;;;2.22;1.95;;;11.20;99.90;;;;;;4665076;30;20069;-83
2022/05/25 20:19:10;;;;;;;2.85;1.13;;;11.20;99.90;;;;;;4665784;30;20069;-83
2022/05/25 20:21:40;;;;;;;1.63;1.52;;;11.20;99.90;;;;;;4679630;30;20097;-83
2022/05/25 20:24:09;;;;;;;1.27;1.27;;;11.30;99.90;;;;;;4667097;30;20071;-83
2022/05/25 20:26:40;;;;;;;5.03;2.42;;;11.30;99.90;;;;;;4652763;30;20071;-83
2022/05/25 20:29:14;;;;;;;1.88;1.70;;;11.30;99.90;;;;;;4661166;30;20054;-83
2022/05/25 20:31:44;;;;;;;1.95;1.80;;;11.30;99.90;;;;;;4666846;30;20406;-83
2022/05/25 20:34:15;;;;;;;1.77;1.67;;;11.30;99.90;;;;;;4679915;30;20046;-83
2022/05/25 20:36:50;;;;;;;2.63;2.17;;;11.20;99.90;;;;;;4676806;30;20042;-83
2022/05/25 20:39:21;;;;;;;2.03;1.52;;;11.20;99.90;;;;;;4681078;30;20399;-83
2022/05/25 20:41:51;;;;;;;2.42;2.33;;;11.20;99.90;;;;;;4679576;30;20054;-83
2022/05/25 20:44:20;;;;;;;4.05;1.80;;;11.20;99.90;;;;;;4677767;30;20070;-83
2022/05/25 20:46:48;;;;;;;2.55;2.08;;;11.30;99.90;;;;;;4678756;30;20058;-83
2022/05/25 20:49:19;;;;;;;1.70;1.60;;;11.20;99.90;;;;;;4667801;30;20049;-83
2022/05/25 20:51:49;;;;;;;1.98;1.85;;;11.20;99.90;;;;;;4670506;30;20061;-83
2022/05/25 20:54:19;;;;;;;4.03;1.65;;;11.20;99.90;;;;;;4680719;30;20046;-83
2022/05/25 20:56:48;;;;;;;2.88;2.28;;;11.10;99.90;;;;;;4656709;30;20064;-84
2022/05/25 20:59:18;;;;;;;1.58;1.48;;;11.10;99.90;;;;;;4668959;30;20058;-83
2022/05/25 21:01:48;;;;;;;2.60;1.98;;;11.10;99.90;;;;;;4671161;30;20042;-84
2022/05/25 21:04:18;;;;;;;2.70;2.45;;;11.00;99.90;;;;;;4680444;30;20834;-83
2022/05/25 21:06:48;;;;;;;3.40;2.38;;;11.00;99.90;;;;;;4668019;30;20072;-83
2022/05/25 21:09:18;;;;;;;2.55;2.15;;;11.00;99.90;;;;;;4652203;30;20058;-83
2022/05/25 21:11:49;;;;;;;2.90;2.70;;;11.00;99.90;;;;;;4666318;30;20080;-84
2022/05/25 21:14:20;;;;;;;2.95;2.72;;;11.00;99.90;;;;;;4680024;30;20506;-83
2022/05/25 21:16:50;;;;;;;3.33;2.40;;;11.10;99.90;;;;;;4669995;30;20050;-84
2022/05/25 21:19:20;;;;;;;2.63;2.47;;;11.10;99.90;;;;;;4667009;30;20058;-84
2022/05/25 21:21:49;;;;;;;3.05;2.75;;;11.10;99.90;;;;;;4683847;30;20106;-83
2022/05/25 21:24:20;;;;;;;2.70;2.50;;;11.10;99.90;;;;;;4667673;30;20054;-83
2022/05/25 21:26:50;;;;;;;2.38;2.17;;;11.10;99.90;;;;;;4671826;30;20050;-83
2022/05/25 21:29:20;;;;;;;3.22;2.92;;;11.10;99.90;;;;;;4685423;30;20120;-83
2022/05/25 21:34:39;;;;;;;3.40;3.10;;;11.10;99.90;;;;;;4685354;30;20052;-82
2022/05/25 21:37:09;;;;;;;3.03;2.65;;;11.00;99.90;;;;;;4670380;30;20058;-83
2022/05/25 21:39:38;;;;;;;3.17;2.85;;;11.10;99.90;;;;;;4675418;30;20062;-83
2022/05/25 21:42:08;;;;;;;5.15;3.25;;;11.10;99.90;;;;;;4653090;30;20059;-83
2022/05/25 21:44:36;;;;;;;3.15;2.58;;;11.10;99.90;;;;;;4668507;30;20061;-83
2022/05/25 21:49:57;;;;;;;2.03;1.92;;;11.10;99.90;;;;;;4684872;30;20075;-80
2022/05/25 21:52:27;;;;;;;2.45;2.28;;;11.10;99.90;;;;;;4685397;30;20046;-79
2022/05/25 21:54:56;;;;;;;2.45;2.20;;;11.00;99.90;;;;;;4674101;30;20050;-79
2022/05/25 21:57:24;;;;;;;3.28;3.08;;;11.10;99.90;;;;;;4667941;30;20051;-80
2022/05/25 21:59:53;;;;;;;4.25;3.85;;;11.10;99.90;;;;;;4667828;30;20062;-79
2022/05/25 22:02:23;;;;;;;3.17;2.47;;;11.00;99.90;;;;;;4652864;30;20534;-79
2022/05/25 22:04:51;;;;;;;3.22;2.92;;;11.00;99.90;;;;;;4667758;30;20057;-80
2022/05/25 22:07:20;;;;;;;3.17;2.97;;;11.00;99.90;;;;;;4680997;30;20054;-79
2022/05/25 22:09:49;;;;;;;2.60;2.15;;;11.00;99.90;;;;;;4667547;30;20054;-79
2022/05/25 22:12:18;;;;;;;3.35;3.08;;;11.00;99.90;;;;;;4667717;30;20062;-79
2022/05/25 22:17:59;;;;;;;;;;;11.00;99.90;;;;;;4668065;30;20061;-80
2022/05/25 22:20:29;;;;;;;5.05;2.92;;;11.00;99.90;;;;;;4667294;30;19928;-79
2022/05/25 22:22:57;;;;;;;2.85;2.65;;;11.10;99.90;;;;;;4668347;30;20066;-80
2022/05/25 22:25:29;;;;;;;2.80;2.60;;;11.10;99.90;;;;;;4667307;30;20066;-79
2022/05/25 22:27:57;;;;;;;2.55;2.35;;;11.00;99.90;;;;;;4667671;30;20054;-80
2022/05/25 22:30:25;;;;;;;2.38;2.25;;;11.00;99.90;;;;;;4651621;30;20404;-80
2022/05/25 22:32:53;;;;;;;2.95;2.75;;;11.00;99.90;;;;;;4683160;30;20053;-80
2022/05/25 22:35:21;;;;;;;3.63;3.33;;;11.00;99.90;;;;;;4684822;30;20057;-80
2022/05/25 22:37:51;;;;;;;1.95;1.85;;;10.90;99.90;;;;;;4678597;30;20066;-79
2022/05/25 22:40:22;;;;;;;2.67;2.58;;;10.90;99.90;;;;;;4666572;30;20062;-80
2022/05/25 22:42:50;;;;;;;3.28;3.08;;;10.90;99.90;;;;;;4673963;30;20062;-83
2022/05/25 22:45:19;;;;;;;3.33;3.03;;;10.90;99.90;;;;;;4684388;30;20058;-83
2022/05/25 22:47:47;;;;;;;5.22;2.53;;;10.90;99.90;;;;;;4684325;30;20057;-84
2022/05/25 22:50:14;;;;;;;4.18;2.08;;;10.90;99.90;;;;;;4683823;30;20054;-84
2022/05/25 22:52:42;;;;;;;3.05;2.75;;;10.90;99.90;;;;;;4684244;30;20050;-83
2022/05/25 22:55:10;;;;;;;2.92;2.72;;;10.80;99.90;;;;;;4684252;30;20058;-83
2022/05/25 22:57:38;;;;;;;2.55;2.35;;;10.70;99.90;;;;;;4682459;30;20065;-83
2022/05/25 23:00:07;;;;;;;5.18;2.53;;;10.60;99.90;;;;;;4668653;30;20065;-84
2022/05/25 23:02:34;;;;;;;3.22;3.03;;;10.40;99.90;;;;;;4683633;30;20069;-84
2022/05/25 23:05:04;;;;;;;2.67;2.47;;;10.30;99.90;;;;;;4668093;30;20668;-83
2022/05/25 23:07:32;;;;;;;3.88;2.90;;;10.40;99.90;;;;;;4697242;30;20063;-83
2022/05/25 23:10:00;;;;;;;2.22;2.08;;;10.40;99.90;;;;;;4681520;30;20061;-83
2022/05/25 23:12:28;;;;;;;2.42;2.10;;;10.50;99.90;;;;;;4666590;30;20070;-83
2022/05/25 23:14:56;;;;;;;3.63;2.42;;;10.50;99.90;;;;;;4651946;30;20069;-83
2022/05/25 23:17:25;;;;;;;1.95;1.85;;;10.50;99.90;;;;;;4651252;30;20546;-84
2022/05/25 23:19:53;;;;;;;2.15;2.03;;;10.50;99.90;;;;;;4637203;30;20382;-84
2022/05/25 23:22:21;;;;;;;2.38;2.20;;;10.50;99.90;;;;;;4650557;30;20070;-83
2022/05/25 23:25:01;;;;;;;2.45;2.15;;;10.50;99.90;;;;;;4666073;30;20381;-83
2022/05/25 23:27:35;;;;;;;1.60;1.50;;;10.50;99.90;;;;;;4637034;30;20067;-83
2022/05/25 23:30:09;;;;;;;2.05;1.80;;;10.50;99.90;;;;;;4665733;30;20061;-83
2022/05/25 23:32:37;;;;;;;2.28;1.77;;;10.50;99.90;;;;;;4650800;30;20050;-82
2022/05/25 23:35:06;;;;;;;2.33;1.90;;;10.50;99.90;;;;;;4666352;30;20492;-83
2022/05/25 23:37:34;;;;;;;2.05;1.95;;;10.40;99.90;;;;;;4664444;30;20066;-83
2022/05/25 23:40:03;;;;;;;1.80;1.70;;;10.50;99.90;;;;;;4666086;30;20070;-83
2022/05/25 23:45:26;;;;;;;1.98;1.60;;;10.40;99.90;;;;;;4633636;30;20058;-83
2022/05/25 23:47:54;;;;;;;2.40;2.05;;;10.50;99.90;;;;;;4647887;30;20404;-83
2022/05/25 23:50:22;;;;;;;1.95;1.85;;;10.50;99.90;;;;;;4648482;30;20046;-82
2022/05/25 23:52:51;;;;;;;2.08;1.88;;;10.50;99.90;;;;;;4647460;30;20051;-82
2022/05/25 23:55:19;;;;;;;1.85;1.75;;;10.50;99.90;;;;;;4647784;30;20058;-82
2022/05/25 23:57:47;;;;;;;5.68;2.58;;;10.40;99.90;;;;;;4647336;30;20405;-83
